createdAt,value
2018-02-10T00:02:04.417Z,35.67
2018-02-10T00:04:33.516Z,35.20
2018-02-10T00:07:02.272Z,37.10
2018-02-10T00:09:30.589Z,32.33
2018-02-10T00:11:58.944Z,31.87
2018-02-10T00:14:28.027Z,32.80
2018-02-10T00:16:56.343Z,33.37
2018-02-10T00:19:24.684Z,33.08
2018-02-10T00:21:52.991Z,33.70
2018-02-10T00:24:21.299Z,33.15
2018-02-10T00:26:49.668Z,32.40
2018-02-10T00:29:17.995Z,32.03
2018-02-10T00:31:46.314Z,33.47
2018-02-10T00:34:14.734Z,37.35
2018-02-10T00:36:43.052Z,30.90
2018-02-10T00:39:11.372Z,35.65
2018-02-10T00:41:39.780Z,34.03
2018-02-10T00:44:08.112Z,31.60
2018-02-10T00:46:36.443Z,35.40
2018-02-10T00:49:05.437Z,35.85
2018-02-10T00:51:33.747Z,36.03
2018-02-10T00:54:02.063Z,31.97
2018-02-10T00:56:30.394Z,35.17
2018-02-10T00:58:58.716Z,32.63
2018-02-10T01:01:27.028Z,34.08
2018-02-10T01:03:56.419Z,33.43
2018-02-10T01:06:24.746Z,31.33
2018-02-10T01:08:53.076Z,33.97
2018-02-10T01:11:21.453Z,30.10
2018-02-10T01:13:49.780Z,34.33
2018-02-10T01:16:18.115Z,33.03
2018-02-10T01:18:46.479Z,33.70
2018-02-10T01:21:14.791Z,33.30
2018-02-10T01:23:43.864Z,32.70
2018-02-10T01:26:12.206Z,31.97
2018-02-10T01:28:40.536Z,33.70
2018-02-10T01:31:08.913Z,34.88
2018-02-10T01:33:38.052Z,35.92
2018-02-10T01:36:06.364Z,30.98
2018-02-10T01:38:34.765Z,34.63
2018-02-10T01:41:03.852Z,32.80
2018-02-10T01:43:32.598Z,32.17
2018-02-10T01:46:01.026Z,34.63
2018-02-10T01:48:29.435Z,31.97
2018-02-10T01:50:57.769Z,34.75
2018-02-10T01:53:26.198Z,29.80
2018-02-10T01:55:54.524Z,33.50
2018-02-10T01:58:22.867Z,32.20
2018-02-10T02:00:51.245Z,33.13
2018-02-10T02:03:19.828Z,34.53
2018-02-10T02:05:48.153Z,34.72
2018-02-10T02:08:16.601Z,34.67
2018-02-10T02:10:44.924Z,35.17
2018-02-10T02:13:13.244Z,33.00
2018-02-10T02:15:41.619Z,33.43
2018-02-10T02:18:09.945Z,31.00
2018-02-10T02:20:38.272Z,33.38
2018-02-10T02:23:07.507Z,34.37
2018-02-10T02:25:35.824Z,31.37
2018-02-10T02:28:04.145Z,34.77
2018-02-10T02:30:33.312Z,35.45
2018-02-10T02:33:01.629Z,34.47
2018-02-10T02:35:29.947Z,32.40
2018-02-10T02:37:58.544Z,38.37
2018-02-10T02:40:26.880Z,34.28
2018-02-10T02:42:55.191Z,34.30
2018-02-10T02:45:23.568Z,31.08
2018-02-10T02:47:51.948Z,35.10
2018-02-10T02:50:20.260Z,31.20
2018-02-10T02:52:48.609Z,33.17
2018-02-10T02:55:16.922Z,35.07
2018-02-10T02:57:45.235Z,32.00
2018-02-10T03:00:13.600Z,35.17
2018-02-10T03:02:42.540Z,33.22
2018-02-10T03:05:10.851Z,34.83
2018-02-10T03:07:39.528Z,33.90
2018-02-10T03:10:07.990Z,32.25
2018-02-10T03:12:36.411Z,35.03
2018-02-10T03:15:04.890Z,32.85
2018-02-10T03:17:33.359Z,33.65
2018-02-10T03:20:01.677Z,35.83
2018-02-10T03:22:32.088Z,35.25
2018-02-10T03:25:00.408Z,33.53
2018-02-10T03:27:28.719Z,34.70
2018-02-10T03:29:57.173Z,32.50
2018-02-10T03:32:26.124Z,33.83
2018-02-10T03:34:55.208Z,33.15
2018-02-10T03:37:23.759Z,31.90
2018-02-10T03:39:52.068Z,33.22
2018-02-10T03:42:20.402Z,34.83
2018-02-10T03:44:48.736Z,32.17
2018-02-10T03:47:17.817Z,31.35
2018-02-10T03:49:46.162Z,30.48
2018-02-10T03:52:14.582Z,36.30
2018-02-10T03:54:42.923Z,33.00
2018-02-10T03:57:11.327Z,33.72
2018-02-10T03:59:39.640Z,32.93
2018-02-10T04:02:08.019Z,35.53
2018-02-10T04:04:36.329Z,34.35
2018-02-10T04:07:04.647Z,34.58
2018-02-10T04:09:34.071Z,35.78
2018-02-10T04:12:02.396Z,35.67
2018-02-10T04:14:30.711Z,34.63
2018-02-10T04:16:59.836Z,34.13
2018-02-10T04:19:28.160Z,32.40
2018-02-10T04:21:56.483Z,37.80
2018-02-10T04:24:24.848Z,33.90
2018-02-10T04:26:53.947Z,34.70
2018-02-10T04:29:23.032Z,33.10
2018-02-10T04:31:52.181Z,36.90
2018-02-10T04:34:20.500Z,31.60
2018-02-10T04:36:48.819Z,31.37
2018-02-10T04:39:17.150Z,31.08
2018-02-10T04:41:45.459Z,35.00
2018-02-10T04:44:14.584Z,36.33
2018-02-10T04:46:42.896Z,33.35
2018-02-10T04:49:11.707Z,31.25
2018-02-10T04:51:40.848Z,33.80
2018-02-10T04:54:09.168Z,35.22
2018-02-10T04:56:37.479Z,35.92
2018-02-10T04:59:05.840Z,33.13
2018-02-10T05:01:34.915Z,33.97
2018-02-10T05:04:03.232Z,34.33
2018-02-10T05:06:31.607Z,35.92
2018-02-10T05:08:59.929Z,35.53
2018-02-10T05:11:28.243Z,31.45
2018-02-10T05:13:57.347Z,36.17
2018-02-10T05:16:26.423Z,33.50
2018-02-10T05:18:54.756Z,33.30
2018-02-10T05:21:23.076Z,33.80
2018-02-10T05:23:51.464Z,35.53
2018-02-10T05:26:20.544Z,32.57
2018-02-10T05:28:48.876Z,35.63
2018-02-10T05:31:17.269Z,31.30
2018-02-10T05:33:45.604Z,33.83
2018-02-10T05:36:13.915Z,33.10
2018-02-10T05:38:42.238Z,34.40
2018-02-10T05:41:10.585Z,33.40
2018-02-10T05:43:38.907Z,31.52
2018-02-10T05:46:08.037Z,32.20
2018-02-10T05:48:36.348Z,36.70
2018-02-10T05:51:04.759Z,31.90
2018-02-10T05:53:33.844Z,33.80
2018-02-10T05:56:02.334Z,35.45
2018-02-10T05:58:30.711Z,33.28
2018-02-10T06:00:59.023Z,29.97
2018-02-10T06:03:27.415Z,33.13
2018-02-10T06:05:55.767Z,34.00
2018-02-10T06:08:24.110Z,37.67
2018-02-10T06:10:52.417Z,31.13
2018-02-10T06:13:20.790Z,33.92
2018-02-10T06:15:49.507Z,37.20
2018-02-10T06:18:17.869Z,55.83
2018-02-10T06:20:46.207Z,37.65
2018-02-10T06:23:14.531Z,34.35
2018-02-10T06:25:42.880Z,36.15
2018-02-10T06:28:11.304Z,32.65
2018-02-10T06:30:39.771Z,35.10
2018-02-10T06:33:08.116Z,34.75
2018-02-10T06:35:37.248Z,33.55
2018-02-10T06:38:05.558Z,33.53
2018-02-10T06:40:34.418Z,34.53
2018-02-10T06:43:02.782Z,32.45
2018-02-10T06:45:31.097Z,33.33
2018-02-10T06:47:59.407Z,32.30
2018-02-10T06:50:27.740Z,30.55
2018-02-10T06:52:56.060Z,32.70
2018-02-10T06:55:24.379Z,32.45
2018-02-10T06:57:52.751Z,32.58
2018-02-10T07:00:21.063Z,34.08
2018-02-10T07:02:49.728Z,33.92
2018-02-10T07:05:18.085Z,31.73
2018-02-10T07:07:46.404Z,42.58
2018-02-10T07:10:14.734Z,32.00
2018-02-10T07:12:43.871Z,31.83
2018-02-10T07:15:12.784Z,36.08
2018-02-10T07:17:41.099Z,31.27
2018-02-10T07:20:09.460Z,30.47
2018-02-10T07:22:38.544Z,32.38
2018-02-10T07:25:06.858Z,30.53
2018-02-10T07:27:35.194Z,32.77
2018-02-10T07:30:03.514Z,33.10
2018-02-10T07:32:31.852Z,31.57
2018-02-10T07:35:00.225Z,31.97
2018-02-10T07:37:29.165Z,31.57
2018-02-10T07:39:57.976Z,31.90
2018-02-10T07:42:26.312Z,31.90
2018-02-10T07:44:55.056Z,31.75
2018-02-10T07:47:23.572Z,30.73
2018-02-10T07:49:51.912Z,31.23
2018-02-10T07:52:20.295Z,31.53
2018-02-10T07:54:48.623Z,31.73
2018-02-10T07:57:17.692Z,31.17
2018-02-10T07:59:46.056Z,32.17
2018-02-10T08:02:14.394Z,31.15
2018-02-10T08:04:42.780Z,33.67
2018-02-10T08:07:11.452Z,29.33
2018-02-10T08:09:39.769Z,33.83
2018-02-10T08:12:08.077Z,33.83
2018-02-10T08:14:36.436Z,32.20
2018-02-10T08:17:04.745Z,34.20
2018-02-10T08:19:33.816Z,29.80
2018-02-10T08:22:02.179Z,34.13
2018-02-10T08:24:31.052Z,31.57
2018-02-10T08:26:59.368Z,34.40
2018-02-10T08:29:28.016Z,30.17
2018-02-10T08:31:56.332Z,31.55
2018-02-10T08:34:24.644Z,32.60
2018-02-10T08:36:53.047Z,30.70
2018-02-10T08:39:21.352Z,30.97
2018-02-10T08:41:49.672Z,33.10
2018-02-10T08:44:18.107Z,30.20
2018-02-10T08:46:46.408Z,29.47
2018-02-10T08:49:14.715Z,30.93
2018-02-10T08:51:43.139Z,31.20
2018-02-10T08:54:11.446Z,32.83
2018-02-10T08:56:40.563Z,34.60
2018-02-10T08:59:09.457Z,34.10
2018-02-10T09:01:38.390Z,33.40
2018-02-10T09:04:06.808Z,33.53
2018-02-10T09:06:35.215Z,33.83
2018-02-10T09:09:03.600Z,29.87
2018-02-10T09:11:31.955Z,31.77
2018-02-10T09:14:01.033Z,30.17
2018-02-10T09:16:29.953Z,30.43
2018-02-10T09:18:58.335Z,29.20
2018-02-10T09:21:26.671Z,30.60
2018-02-10T09:23:54.967Z,31.57
2018-02-10T09:26:24.058Z,32.37
2018-02-10T09:28:52.355Z,30.80
2018-02-10T09:31:20.727Z,30.77
2018-02-10T09:33:49.036Z,31.37
2018-02-10T09:36:17.355Z,32.37
2018-02-10T09:38:46.409Z,27.43
2018-02-10T09:41:14.736Z,32.60
2018-02-10T09:43:43.039Z,31.00
2018-02-10T09:46:11.403Z,34.47
2018-02-10T09:48:39.724Z,31.17
2018-02-10T09:51:08.045Z,29.80
2018-02-10T09:53:42.451Z,29.80
2018-02-10T09:56:10.763Z,30.20
2018-02-10T09:58:39.839Z,31.10
2018-02-10T10:01:08.206Z,32.40
2018-02-10T10:03:36.515Z,30.47
2018-02-10T10:06:04.828Z,33.93
2018-02-10T10:08:33.200Z,30.27
2018-02-10T10:11:01.615Z,26.67
2018-02-10T10:13:29.934Z,26.73
2018-02-10T10:15:59.059Z,24.50
2018-02-10T10:18:27.379Z,31.80
2018-02-10T10:20:55.686Z,29.33
2018-02-10T10:23:24.042Z,29.30
2018-02-10T10:25:52.359Z,30.97
2018-02-10T10:28:20.665Z,27.57
2018-02-10T10:30:49.034Z,25.30
2018-02-10T10:33:17.352Z,30.97
2018-02-10T10:35:45.671Z,25.30
2018-02-10T10:38:14.011Z,27.83
2018-02-10T10:40:42.319Z,26.83
2018-02-10T10:43:10.624Z,29.53
2018-02-10T10:45:38.980Z,26.93
2018-02-10T10:48:07.316Z,27.07
2018-02-10T10:50:35.615Z,29.27
2018-02-10T10:53:03.960Z,28.47
2018-02-10T10:55:32.263Z,28.43
2018-02-10T10:58:01.340Z,30.90
2018-02-10T11:00:30.013Z,27.10
2018-02-10T11:02:58.324Z,31.93
2018-02-10T11:05:27.679Z,28.23
2018-02-10T11:07:56.040Z,29.00
2018-02-10T11:10:24.351Z,30.07
2018-02-10T11:12:52.660Z,28.50
2018-02-10T11:15:21.784Z,27.80
2018-02-10T11:17:50.102Z,27.23
2018-02-10T11:20:18.415Z,29.30
2018-02-10T11:22:46.770Z,30.87
2018-02-10T11:25:15.081Z,28.67
2018-02-10T11:27:43.389Z,29.20
2018-02-10T11:30:11.732Z,28.77
2018-02-10T11:32:40.048Z,26.90
2018-02-10T11:35:08.355Z,30.13
2018-02-10T11:37:36.713Z,29.87
2018-02-10T11:40:05.028Z,27.50
2018-02-10T11:42:33.340Z,30.30
2018-02-10T11:45:01.712Z,26.57
2018-02-10T11:47:30.029Z,27.00
2018-02-10T11:49:58.344Z,25.43
2018-02-10T11:52:26.726Z,26.07
2018-02-10T11:54:55.037Z,23.10
2018-02-10T11:57:23.359Z,23.30
2018-02-10T11:59:51.705Z,21.90
2018-02-10T12:02:20.004Z,20.20
2018-02-10T12:04:48.317Z,21.23
2018-02-10T12:07:16.682Z,22.13
2018-02-10T12:09:45.004Z,21.03
2018-02-10T12:12:13.315Z,19.17
2018-02-10T12:14:41.657Z,20.40
2018-02-10T12:17:09.972Z,20.20
2018-02-10T12:19:38.296Z,18.50
2018-02-10T12:22:06.688Z,20.40
2018-02-10T12:24:34.992Z,17.60
2018-02-10T12:27:03.316Z,20.17
2018-02-10T12:29:31.679Z,19.37
2018-02-10T12:31:59.989Z,19.23
2018-02-10T12:34:28.312Z,19.70
2018-02-10T12:36:56.663Z,21.03
2018-02-10T12:39:24.972Z,22.63
2018-02-10T12:41:54.052Z,23.87
2018-02-10T12:44:22.420Z,24.00
2018-02-10T12:46:50.727Z,23.03
2018-02-10T12:49:24.595Z,28.07
2018-02-10T12:51:52.899Z,23.77
2018-02-10T12:54:21.204Z,23.67
2018-02-10T12:56:50.324Z,24.70
2018-02-10T12:59:18.635Z,25.60
2018-02-10T13:01:46.960Z,23.40
2018-02-10T13:04:15.312Z,24.80
2018-02-10T13:06:43.640Z,23.30
2018-02-10T13:09:11.944Z,25.90
2018-02-10T13:11:40.591Z,25.57
2018-02-10T13:14:08.908Z,25.80
2018-02-10T13:16:37.211Z,24.53
2018-02-10T13:19:05.565Z,24.60
2018-02-10T13:21:33.877Z,23.87
2018-02-10T13:24:02.967Z,22.47
2018-02-10T13:26:32.092Z,24.87
2018-02-10T13:29:01.160Z,21.97
2018-02-10T13:31:30.252Z,26.40
2018-02-10T13:33:58.701Z,22.17
2018-02-10T13:36:27.792Z,20.90
2018-02-10T13:38:56.150Z,23.17
2018-02-10T13:41:24.484Z,21.73
2018-02-10T13:43:52.791Z,21.77
2018-02-10T13:46:21.112Z,20.10
2018-02-10T13:48:49.475Z,20.30
2018-02-10T13:51:17.781Z,18.47
2018-02-10T13:53:46.291Z,20.93
2018-02-10T13:56:14.636Z,21.23
2018-02-10T13:58:42.952Z,18.00
2018-02-10T14:01:11.264Z,20.10
2018-02-10T14:03:40.391Z,18.63
2018-02-10T14:06:08.703Z,18.00
2018-02-10T14:08:37.955Z,20.33
2018-02-10T14:11:06.320Z,17.17
2018-02-10T14:13:34.637Z,15.00
2018-02-10T14:16:03.007Z,18.67
2018-02-10T14:18:31.357Z,17.43
2018-02-10T14:20:59.673Z,18.23
2018-02-10T14:23:27.987Z,17.67
2018-02-10T14:25:56.332Z,18.77
2018-02-10T14:28:24.650Z,16.80
2018-02-10T14:30:52.956Z,18.10
2018-02-10T14:33:21.308Z,17.00
2018-02-10T14:35:49.624Z,16.60
2018-02-10T14:38:17.942Z,17.00
2018-02-10T14:40:46.299Z,15.03
2018-02-10T14:43:15.376Z,14.57
2018-02-10T14:45:44.472Z,15.43
2018-02-10T14:48:12.815Z,15.30
2018-02-10T14:50:41.132Z,14.73
2018-02-10T14:53:09.452Z,14.70
2018-02-10T14:55:37.849Z,12.97
2018-02-10T14:58:06.160Z,14.17
2018-02-10T15:00:34.471Z,15.80
2018-02-10T15:03:02.808Z,16.33
2018-02-10T15:05:31.116Z,16.43
2018-02-10T15:08:00.191Z,15.80
2018-02-10T15:10:28.614Z,15.40
2018-02-10T15:12:56.924Z,15.30
2018-02-10T15:15:25.491Z,16.63
2018-02-10T15:17:53.848Z,16.93
2018-02-10T15:20:22.152Z,18.80
2018-02-10T15:22:50.463Z,14.97
2018-02-10T15:25:18.820Z,19.85
2018-02-10T15:27:47.123Z,16.97
2018-02-10T15:30:33.175Z,21.73
2018-02-10T15:33:18.970Z,17.17
2018-02-10T15:35:47.333Z,20.03
2018-02-10T15:38:15.652Z,15.47
2018-02-10T15:40:43.972Z,19.03
2018-02-10T15:43:12.355Z,18.75
2018-02-10T15:45:40.668Z,19.80
2018-02-10T15:48:08.996Z,20.47
2018-02-10T15:50:37.352Z,21.60
2018-02-10T15:53:06.436Z,19.67
2018-02-10T15:55:34.752Z,23.10
2018-02-10T15:58:03.100Z,20.05
2018-02-10T16:00:31.415Z,18.58
2018-02-10T16:02:59.790Z,19.70
2018-02-10T16:05:28.156Z,21.12
2018-02-10T16:07:56.535Z,18.83
2018-02-10T16:10:24.844Z,20.30
2018-02-10T16:12:53.555Z,19.80
2018-02-10T16:15:21.871Z,18.73
2018-02-10T16:17:50.191Z,20.63
2018-02-10T16:20:18.544Z,18.80
2018-02-10T16:22:46.862Z,19.27
2018-02-10T16:25:15.176Z,20.20
2018-02-10T16:27:43.581Z,19.30
2018-02-10T16:30:11.903Z,21.85
2018-02-10T16:32:40.219Z,18.10
2018-02-10T16:35:08.571Z,18.53
2018-02-10T16:37:36.887Z,18.47
2018-02-10T16:40:05.239Z,20.30
2018-02-10T16:42:34.323Z,19.27
2018-02-10T16:45:02.637Z,20.17
2018-02-10T16:47:30.955Z,19.10
2018-02-10T16:49:59.325Z,17.02
2018-02-10T16:52:27.627Z,18.13
2018-02-10T16:54:55.940Z,20.10
2018-02-10T16:57:24.307Z,17.12
2018-02-10T16:59:53.408Z,17.85
2018-02-10T17:02:22.499Z,17.50
2018-02-10T17:04:51.603Z,19.10
2018-02-10T17:07:20.692Z,17.43
2018-02-10T17:09:49.775Z,19.27
2018-02-10T17:12:18.131Z,18.05
2018-02-10T17:14:46.460Z,19.00
2018-02-10T17:17:15.270Z,21.10
2018-02-10T17:19:43.700Z,18.23
2018-02-10T17:22:12.780Z,20.83
2018-02-10T17:24:41.128Z,19.30
2018-02-10T17:27:09.490Z,20.88
2018-02-10T17:29:37.811Z,19.10
2018-02-10T17:32:06.111Z,17.13
2018-02-10T17:34:34.464Z,18.30
2018-02-10T17:37:02.796Z,18.50
2018-02-10T17:39:31.104Z,19.23
2018-02-10T17:41:59.476Z,17.95
2018-02-10T17:44:27.793Z,19.17
2018-02-10T17:46:56.134Z,19.60
2018-02-10T17:49:24.467Z,19.65
2018-02-10T17:51:52.779Z,18.00
2018-02-10T17:54:21.089Z,19.57
2018-02-10T17:56:49.557Z,18.60
2018-02-10T17:59:17.868Z,21.10
2018-02-10T18:01:46.190Z,21.73
2018-02-10T18:04:14.895Z,20.10
2018-02-10T18:06:43.205Z,19.63
2018-02-10T18:09:11.532Z,21.17
2018-02-10T18:11:39.908Z,20.53
2018-02-10T18:14:08.225Z,18.13
2018-02-10T18:16:36.553Z,18.05
2018-02-10T18:19:04.925Z,18.17
2018-02-10T18:21:33.235Z,19.60
2018-02-10T18:24:01.543Z,19.23
2018-02-10T18:26:30.040Z,19.60
2018-02-10T18:28:58.359Z,22.20
2018-02-10T18:31:26.683Z,20.33
2018-02-10T18:33:55.039Z,20.37
2018-02-10T18:36:23.352Z,23.40
2018-02-10T18:38:51.664Z,24.87
2018-02-10T18:41:20.064Z,22.80
2018-02-10T18:43:48.376Z,21.27
2018-02-10T18:46:16.689Z,20.90
2018-02-10T18:48:45.088Z,20.83
2018-02-10T18:51:13.403Z,22.30
2018-02-10T18:53:41.719Z,24.25
2018-02-10T18:56:10.082Z,24.50
2018-02-10T18:58:38.388Z,22.40
2018-02-10T19:01:06.718Z,21.50
2018-02-10T19:03:35.082Z,22.77
2018-02-10T19:06:03.407Z,23.93
2018-02-10T19:08:31.749Z,24.95
2018-02-10T19:11:00.932Z,20.88
2018-02-10T19:13:29.251Z,20.70
2018-02-10T19:15:57.565Z,21.20
2018-02-10T19:18:25.947Z,23.07
2018-02-10T19:20:54.276Z,23.60
2018-02-10T19:23:23.059Z,26.35
2018-02-10T19:25:51.511Z,24.48
2018-02-10T19:28:19.816Z,23.33
2018-02-10T19:30:48.898Z,22.85
2018-02-10T19:33:17.768Z,23.73
2018-02-10T19:35:46.076Z,20.43
2018-02-10T19:38:14.397Z,23.05
2018-02-10T19:40:42.848Z,22.07
2018-02-10T19:43:11.920Z,28.73
2018-02-10T19:45:40.231Z,27.70
2018-02-10T19:48:09.353Z,24.27
2018-02-10T19:50:37.680Z,22.62
2018-02-10T19:53:05.998Z,23.25
2018-02-10T19:55:34.375Z,23.33
2018-02-10T19:58:02.692Z,23.00
2018-02-10T20:00:31.003Z,21.13
2018-02-10T20:02:59.395Z,24.35
2018-02-10T20:05:27.719Z,23.00
2018-02-10T20:07:56.033Z,21.63
2018-02-10T20:10:24.407Z,20.50
2018-02-10T20:12:52.729Z,21.35
2018-02-10T20:15:21.048Z,20.30
2018-02-10T20:17:49.395Z,21.03
2018-02-10T20:20:17.712Z,18.98
2018-02-10T20:22:46.796Z,19.80
2018-02-10T20:25:15.184Z,19.62
2018-02-10T20:27:43.503Z,20.87
2018-02-10T20:30:11.826Z,17.77
2018-02-10T20:32:40.199Z,21.55
2018-02-10T20:35:08.515Z,20.83
2018-02-10T20:37:36.834Z,22.53
2018-02-10T20:40:05.299Z,21.33
2018-02-10T20:42:33.596Z,22.98
2018-02-10T20:45:01.895Z,24.57
2018-02-10T20:47:30.621Z,23.65
2018-02-10T20:49:59.696Z,22.73
2018-02-10T20:52:27.999Z,24.37
2018-02-10T20:54:56.356Z,23.77
2018-02-10T20:57:24.696Z,24.98
2018-02-10T20:59:53.015Z,23.17
2018-02-10T21:02:21.451Z,23.60
2018-02-10T21:04:49.768Z,24.23
2018-02-10T21:07:18.079Z,23.80
2018-02-10T21:09:46.431Z,22.77
2018-02-10T21:12:14.748Z,22.95
2018-02-10T21:14:43.063Z,21.98
2018-02-10T21:17:11.420Z,25.10
2018-02-10T21:19:39.793Z,22.20
2018-02-10T21:22:08.140Z,22.87
2018-02-10T21:24:36.495Z,24.70
2018-02-10T21:27:04.820Z,24.53
2018-02-10T21:29:33.131Z,24.13
2018-02-10T21:32:01.503Z,24.30
2018-02-10T21:34:29.819Z,24.13
2018-02-10T21:36:58.124Z,23.70
2018-02-10T21:39:26.488Z,24.07
2018-02-10T21:41:54.799Z,19.33
2018-02-10T21:44:23.109Z,21.20
2018-02-10T21:46:51.476Z,22.40
2018-02-10T21:49:19.784Z,21.00
2018-02-10T21:51:48.096Z,24.40
2018-02-10T21:54:16.443Z,24.40
2018-02-10T21:56:44.770Z,25.63
2018-02-10T21:59:13.082Z,25.77
2018-02-10T22:01:42.228Z,21.85
2018-02-10T22:04:10.568Z,25.20
2018-02-10T22:06:38.884Z,20.90
2018-02-10T22:09:07.223Z,24.73
2018-02-10T22:11:35.531Z,20.60
2018-02-10T22:14:03.899Z,18.70
2018-02-10T22:16:32.291Z,19.73
2018-02-10T22:19:00.631Z,19.57
2018-02-10T22:21:28.944Z,20.27
2018-02-10T22:23:57.291Z,19.08
2018-02-10T22:26:25.604Z,20.30
2018-02-10T22:28:53.904Z,20.53
2018-02-10T22:31:22.268Z,18.83
2018-02-10T22:33:50.580Z,17.02
2018-02-10T22:36:19.657Z,15.15
2018-02-10T22:38:48.026Z,15.10
2018-02-10T22:41:16.335Z,11.83
2018-02-10T22:43:44.684Z,12.30
2018-02-10T22:46:13.043Z,12.13
2018-02-10T22:48:41.351Z,11.77
2018-02-10T22:51:09.663Z,12.53
2018-02-10T22:53:38.012Z,12.40
2018-02-10T22:56:06.334Z,13.67
2018-02-10T22:58:34.680Z,15.53
2018-02-10T23:01:08.888Z,17.03
2018-02-10T23:03:37.196Z,16.20
2018-02-10T23:06:05.526Z,14.80
2018-02-10T23:08:33.897Z,17.05
2018-02-10T23:11:02.203Z,17.23
2018-02-10T23:13:30.527Z,15.90
2018-02-10T23:15:58.868Z,14.10
2018-02-10T23:18:27.951Z,16.73
2018-02-10T23:20:57.023Z,15.87
2018-02-10T23:23:25.404Z,13.00
2018-02-10T23:25:53.769Z,14.20
2018-02-10T23:28:22.112Z,13.23
2018-02-10T23:30:50.489Z,11.43
2018-02-10T23:33:18.797Z,12.27
2018-02-10T23:35:47.116Z,11.27
2018-02-10T23:38:16.168Z,10.43
2018-02-10T23:40:44.504Z,11.85
2018-02-10T23:43:13.587Z,12.83
2018-02-10T23:45:41.991Z,11.00
2018-02-10T23:48:10.424Z,12.60
2018-02-10T23:50:38.791Z,12.90
2018-02-10T23:53:07.108Z,12.45
2018-02-10T23:55:36.188Z,12.63
2018-02-10T23:58:04.544Z,12.23
